createdAt,value
2023-05-05T00:02:09.365Z,10.38
2023-05-05T00:04:36.780Z,19.25
2023-05-05T00:07:04.134Z,13.73
2023-05-05T00:09:31.482Z,11.55
2023-05-05T00:11:58.829Z,10.57
2023-05-05T00:14:26.290Z,11.60
2023-05-05T00:16:53.660Z,14.82
2023-05-05T00:19:21.059Z,13.18
2023-05-05T00:21:48.479Z,14.20
2023-05-05T00:24:15.907Z,13.18
2023-05-05T00:26:43.432Z,14.40
2023-05-05T00:29:11.327Z,13.90
2023-05-05T00:31:38.875Z,13.50
2023-05-05T00:34:06.455Z,11.75
2023-05-05T00:36:33.762Z,12.18
2023-05-05T00:39:01.196Z,14.23
2023-05-05T00:41:28.593Z,12.70
2023-05-05T00:43:55.885Z,14.93
2023-05-05T00:46:26.013Z,13.82
2023-05-05T00:48:54.493Z,20.63
2023-05-05T00:51:22.707Z,13.25
2023-05-05T00:53:50.928Z,15.02
2023-05-05T00:56:20.829Z,14.23
2023-05-05T00:58:49.352Z,14.43
2023-05-05T01:01:17.241Z,12.93
2023-05-05T01:03:45.317Z,13.82
2023-05-05T01:06:31.732Z,12.30
2023-05-05T01:09:07.546Z,10.60
2023-05-05T01:11:52.885Z,11.00
2023-05-05T01:14:28.441Z,11.23
2023-05-05T01:17:03.172Z,10.45
2023-05-05T01:19:33.504Z,9.35
2023-05-05T01:22:03.896Z,9.90
2023-05-05T01:25:00.100Z,7.63
2023-05-05T01:28:15.048Z,8.82
2023-05-05T01:30:50.703Z,11.75
2023-05-05T01:33:24.540Z,8.90
2023-05-05T01:35:56.560Z,9.85
2023-05-05T01:38:32.467Z,9.13
2023-05-05T01:41:07.911Z,6.78
2023-05-05T01:43:37.192Z,9.48
2023-05-05T01:46:06.380Z,8.52
2023-05-05T01:48:34.040Z,8.52
2023-05-05T01:51:03.152Z,7.22
2023-05-05T01:53:32.553Z,8.05
2023-05-05T01:56:01.891Z,7.75
2023-05-05T01:58:30.961Z,8.75
2023-05-05T02:00:59.687Z,13.02
2023-05-05T02:03:28.255Z,10.75
2023-05-05T02:05:57.251Z,10.18
2023-05-05T02:08:25.992Z,9.32
2023-05-05T02:10:55.506Z,8.57
2023-05-05T02:13:25.849Z,9.25
2023-05-05T02:15:54.860Z,10.25
2023-05-05T02:18:23.874Z,8.95
2023-05-05T02:20:53.082Z,9.15
2023-05-05T02:23:20.700Z,10.55
2023-05-05T02:25:51.261Z,9.55
2023-05-05T02:28:46.682Z,11.30
2023-05-05T02:31:16.417Z,11.32
2023-05-05T02:33:45.668Z,10.38
2023-05-05T02:36:27.847Z,10.40
2023-05-05T02:39:04.616Z,11.75
2023-05-05T02:41:39.387Z,8.93
2023-05-05T02:44:15.561Z,11.38
2023-05-05T02:46:43.837Z,10.35
2023-05-05T02:49:11.196Z,9.00
2023-05-05T02:51:40.272Z,7.68
2023-05-05T02:54:15.766Z,9.18
2023-05-05T02:56:48.846Z,10.60
2023-05-05T02:59:31.267Z,7.68
2023-05-05T03:02:10.104Z,9.20
2023-05-05T03:05:08.393Z,7.55
2023-05-05T03:08:03.333Z,9.50
2023-05-05T03:10:43.285Z,7.75
2023-05-05T03:13:12.047Z,10.52
2023-05-05T03:15:48.089Z,9.20
2023-05-05T03:18:19.969Z,8.15
2023-05-05T03:20:52.607Z,7.93
2023-05-05T03:23:21.047Z,7.70
2023-05-05T03:25:51.483Z,6.78
2023-05-05T03:28:28.064Z,7.13
2023-05-05T03:30:57.586Z,7.05
2023-05-05T03:33:25.621Z,7.95
2023-05-05T03:35:56.107Z,6.80
2023-05-05T03:38:23.570Z,7.93
2023-05-05T03:40:50.973Z,7.65
2023-05-05T03:43:21.309Z,7.82
2023-05-05T03:45:50.610Z,5.95
2023-05-05T03:48:19.009Z,7.35
2023-05-05T03:50:46.597Z,5.93
2023-05-05T03:53:15.021Z,9.05
2023-05-05T03:55:43.119Z,10.00
2023-05-05T03:58:11.634Z,7.07
2023-05-05T04:00:38.987Z,8.50
2023-05-05T04:03:06.815Z,9.00
2023-05-05T04:05:34.812Z,10.02
2023-05-05T04:08:03.353Z,8.75
2023-05-05T04:10:31.034Z,7.78
2023-05-05T04:12:59.108Z,8.77
2023-05-05T04:15:27.599Z,9.85
2023-05-05T04:17:55.218Z,14.10
2023-05-05T04:20:22.643Z,10.35
2023-05-05T04:22:52.649Z,14.45
2023-05-05T04:25:20.701Z,11.02
2023-05-05T04:27:49.308Z,7.90
2023-05-05T04:30:17.126Z,11.30
2023-05-05T04:32:44.691Z,10.20
2023-05-05T04:35:13.221Z,12.43
2023-05-05T04:37:41.955Z,13.68
2023-05-05T04:40:10.597Z,13.60
2023-05-05T04:42:39.295Z,13.63
2023-05-05T04:45:08.505Z,13.70
2023-05-05T04:47:40.186Z,13.48
2023-05-05T04:50:08.930Z,15.98
2023-05-05T04:52:36.423Z,13.10
2023-05-05T04:55:04.618Z,16.00
2023-05-05T04:57:32.073Z,15.75
2023-05-05T05:00:00.981Z,13.93
2023-05-05T05:02:28.474Z,12.68
2023-05-05T05:04:55.829Z,14.90
2023-05-05T05:07:24.280Z,14.40
2023-05-05T05:09:52.236Z,13.23
2023-05-05T05:12:19.590Z,16.35
2023-05-05T05:14:46.931Z,14.93
2023-05-05T05:17:15.737Z,15.35
2023-05-05T05:19:43.189Z,12.95
2023-05-05T05:22:11.344Z,14.85
2023-05-05T05:24:41.496Z,16.48
2023-05-05T05:27:10.370Z,16.55
2023-05-05T05:29:40.015Z,17.48
2023-05-05T05:32:07.642Z,18.30
2023-05-05T05:34:35.482Z,17.08
2023-05-05T05:37:03.943Z,18.45
2023-05-05T05:39:31.433Z,14.88
2023-05-05T05:41:59.014Z,15.38
2023-05-05T05:44:26.453Z,17.42
2023-05-05T05:46:53.834Z,16.65
2023-05-05T05:49:21.705Z,19.52
2023-05-05T05:51:49.167Z,18.40
2023-05-05T05:54:16.540Z,19.58
2023-05-05T05:56:44.145Z,16.33
2023-05-05T05:59:11.760Z,15.65
2023-05-05T06:01:40.602Z,17.48
2023-05-05T06:04:09.200Z,22.23
2023-05-05T06:06:38.578Z,15.80
2023-05-05T06:09:05.986Z,18.48
2023-05-05T06:11:35.235Z,21.98
2023-05-05T06:14:02.904Z,19.45
2023-05-05T06:16:30.545Z,22.67
2023-05-05T06:19:00.404Z,17.05
2023-05-05T06:21:27.742Z,17.38
2023-05-05T06:23:55.397Z,20.73
2023-05-05T06:26:23.131Z,15.90
2023-05-05T06:28:50.435Z,17.70
2023-05-05T06:31:18.326Z,20.08
2023-05-05T06:33:45.728Z,16.23
2023-05-05T06:36:13.105Z,21.65
2023-05-05T06:38:40.391Z,20.50
2023-05-05T06:41:07.926Z,17.75
2023-05-05T06:43:35.596Z,16.95
2023-05-05T06:46:07.616Z,17.95
2023-05-05T06:48:34.873Z,15.15
2023-05-05T06:51:03.030Z,15.70
2023-05-05T06:53:30.651Z,15.07
2023-05-05T06:55:59.199Z,15.00
2023-05-05T06:58:26.582Z,15.68
2023-05-05T07:00:54.176Z,14.00
2023-05-05T07:03:21.671Z,12.88
2023-05-05T07:05:49.052Z,13.65
2023-05-05T07:08:16.376Z,16.27
2023-05-05T07:10:44.054Z,14.10
2023-05-05T07:13:11.484Z,14.57
2023-05-05T07:15:46.238Z,13.95
2023-05-05T07:18:14.366Z,15.70
2023-05-05T07:20:42.432Z,16.48
2023-05-05T07:23:11.177Z,12.85
2023-05-05T07:25:38.988Z,11.82
2023-05-05T07:28:06.637Z,12.30
2023-05-05T07:30:34.000Z,14.55
2023-05-05T07:33:01.414Z,13.90
2023-05-05T07:35:29.033Z,15.52
2023-05-05T07:37:56.380Z,11.00
2023-05-05T07:40:23.881Z,13.15
2023-05-05T07:42:51.795Z,10.77
2023-05-05T07:45:19.256Z,10.05
2023-05-05T07:47:46.922Z,12.40
2023-05-05T07:50:14.333Z,9.90
2023-05-05T07:52:46.861Z,10.55
2023-05-05T07:55:19.118Z,12.10
2023-05-05T07:57:47.974Z,9.77
2023-05-05T08:00:16.070Z,9.75
2023-05-05T08:02:44.093Z,12.77
2023-05-05T08:05:12.486Z,8.00
2023-05-05T08:07:41.626Z,11.40
2023-05-05T08:10:11.351Z,11.02
2023-05-05T08:12:39.755Z,8.88
2023-05-05T08:15:11.195Z,11.73
2023-05-05T08:17:47.960Z,9.88
2023-05-05T08:20:16.470Z,9.27
2023-05-05T08:22:44.258Z,16.85
2023-05-05T08:25:12.917Z,12.07
2023-05-05T08:27:41.734Z,9.98
2023-05-05T08:30:10.175Z,11.82
2023-05-05T08:32:38.405Z,10.00
2023-05-05T08:35:06.671Z,9.98
2023-05-05T08:37:35.573Z,10.07
2023-05-05T08:40:03.387Z,10.13
2023-05-05T08:42:38.433Z,9.93
2023-05-05T08:45:10.259Z,9.20
2023-05-05T08:47:39.496Z,11.35
2023-05-05T08:50:10.432Z,10.25
2023-05-05T08:52:45.839Z,10.10
2023-05-05T08:55:16.844Z,9.23
2023-05-05T08:57:52.580Z,12.07
2023-05-05T09:00:20.879Z,10.88
2023-05-05T09:02:48.911Z,9.77
2023-05-05T09:05:16.610Z,11.60
2023-05-05T09:07:44.305Z,9.90
2023-05-05T09:10:12.251Z,10.95
2023-05-05T09:12:43.063Z,12.13
2023-05-05T09:15:15.095Z,11.38
2023-05-05T09:17:43.444Z,9.95
2023-05-05T09:20:12.758Z,10.63
2023-05-05T09:22:47.377Z,9.90
2023-05-05T09:25:16.737Z,9.50
2023-05-05T09:27:46.561Z,10.00
2023-05-05T09:30:23.673Z,10.07
2023-05-05T09:32:52.999Z,9.15
2023-05-05T09:35:21.837Z,10.98
2023-05-05T09:37:49.277Z,7.63
2023-05-05T09:40:18.629Z,7.30
2023-05-05T09:42:46.148Z,7.45
2023-05-05T09:45:19.655Z,6.47
2023-05-05T09:47:47.875Z,6.23
2023-05-05T09:50:18.874Z,6.85
2023-05-05T09:52:59.765Z,4.72
2023-05-05T09:55:27.372Z,5.75
2023-05-05T09:57:54.968Z,5.20
2023-05-05T10:00:22.891Z,4.50
2023-05-05T10:02:50.468Z,4.40
2023-05-05T10:05:18.937Z,3.67
2023-05-05T10:07:47.690Z,5.60
2023-05-05T10:10:18.471Z,5.05
2023-05-05T10:12:47.739Z,3.80
2023-05-05T10:15:16.366Z,3.72
2023-05-05T10:20:21.177Z,7.93
2023-05-05T10:22:53.371Z,6.03
2023-05-05T10:25:33.145Z,6.40
2023-05-05T10:28:04.794Z,6.40
2023-05-05T10:30:36.337Z,5.60
2023-05-05T10:33:31.542Z,6.55
2023-05-05T10:36:03.441Z,4.60
2023-05-05T10:38:32.325Z,6.65
2023-05-05T10:41:01.228Z,6.38
2023-05-05T10:43:30.836Z,9.32
2023-05-05T10:45:59.425Z,9.57
2023-05-05T10:48:56.684Z,10.13
2023-05-05T10:51:39.893Z,7.47
2023-05-05T10:54:30.179Z,6.88
2023-05-05T10:57:01.257Z,7.07
2023-05-05T10:59:40.101Z,8.18
2023-05-05T11:02:21.205Z,7.95
2023-05-05T11:05:08.326Z,6.63
2023-05-05T11:07:37.074Z,7.82
2023-05-05T11:10:06.542Z,7.00
2023-05-05T11:12:54.110Z,8.52
2023-05-05T11:15:27.462Z,9.95
2023-05-05T11:17:59.513Z,9.63
2023-05-05T11:20:39.684Z,7.70
2023-05-05T11:23:07.405Z,8.75
2023-05-05T11:25:34.857Z,9.35
2023-05-05T11:28:07.163Z,8.65
2023-05-05T11:30:36.076Z,11.30
2023-05-05T11:33:31.505Z,10.70
2023-05-05T11:35:59.987Z,9.35
2023-05-05T11:38:42.736Z,10.77
2023-05-05T11:41:28.860Z,8.63
2023-05-05T11:44:08.415Z,11.35
2023-05-05T11:46:36.159Z,8.18
2023-05-05T11:49:03.608Z,8.75
2023-05-05T11:51:31.976Z,8.38
2023-05-05T11:53:59.495Z,9.35
2023-05-05T11:56:28.154Z,10.35
2023-05-05T11:59:22.197Z,11.60
2023-05-05T12:01:49.597Z,11.40
2023-05-05T12:04:18.080Z,10.20
2023-05-05T12:06:46.482Z,14.15
2023-05-05T12:09:22.064Z,9.75
2023-05-05T12:11:54.371Z,9.43
2023-05-05T12:14:22.851Z,11.98
2023-05-05T12:17:03.130Z,11.93
2023-05-05T12:19:33.298Z,12.27
2023-05-05T12:22:05.003Z,10.00
2023-05-05T12:24:32.388Z,8.55
2023-05-05T12:27:09.509Z,7.97
2023-05-05T12:29:37.326Z,7.78
2023-05-05T12:32:05.129Z,6.25
2023-05-05T12:34:32.938Z,8.43
2023-05-05T12:37:00.956Z,8.05
2023-05-05T12:39:37.508Z,8.63
2023-05-05T12:42:06.227Z,7.38
2023-05-05T12:44:40.690Z,8.50
2023-05-05T12:49:49.080Z,10.05
2023-05-05T12:52:17.320Z,11.88
2023-05-05T12:54:58.591Z,7.43
2023-05-05T12:57:26.381Z,9.98
2023-05-05T12:59:53.836Z,7.68
2023-05-05T13:02:21.520Z,6.47
2023-05-05T13:04:53.524Z,9.30
2023-05-05T13:07:21.996Z,8.90
2023-05-05T13:09:50.281Z,7.68
2023-05-05T13:12:18.445Z,6.88
2023-05-05T13:14:46.775Z,11.13
2023-05-05T13:17:14.780Z,7.22
2023-05-05T13:19:45.848Z,9.73
2023-05-05T13:22:13.568Z,6.80
2023-05-05T13:24:51.749Z,4.43
2023-05-05T13:27:20.702Z,7.63
2023-05-05T13:29:48.149Z,7.22
2023-05-05T13:32:15.525Z,7.03
2023-05-05T13:34:44.125Z,7.70
2023-05-05T13:37:11.527Z,6.97
2023-05-05T13:39:38.828Z,6.55
2023-05-05T13:42:06.166Z,5.97
2023-05-05T13:44:33.495Z,5.35
2023-05-05T13:47:00.977Z,7.30
2023-05-05T13:49:28.376Z,5.30
2023-05-05T13:51:56.338Z,5.50
2023-05-05T13:54:23.712Z,7.65
2023-05-05T13:56:51.004Z,6.22
2023-05-05T13:59:18.281Z,5.72
2023-05-05T14:01:45.589Z,3.63
2023-05-05T14:04:13.016Z,5.45
2023-05-05T14:06:40.410Z,5.10
2023-05-05T14:09:08.145Z,4.75
2023-05-05T14:11:35.516Z,5.68
2023-05-05T14:14:07.061Z,11.23
2023-05-05T14:16:35.460Z,6.53
2023-05-05T14:19:05.858Z,6.68
2023-05-05T14:21:33.329Z,4.80
2023-05-05T14:24:00.697Z,5.18
2023-05-05T14:26:28.124Z,4.20
2023-05-05T14:28:55.814Z,4.03
2023-05-05T14:31:23.167Z,3.70
2023-05-05T14:33:50.814Z,8.77
2023-05-05T14:36:18.184Z,5.57
2023-05-05T14:38:45.638Z,5.63
2023-05-05T14:41:13.033Z,4.03
2023-05-05T14:43:40.928Z,5.97
2023-05-05T14:46:08.326Z,5.50
2023-05-05T14:48:35.961Z,4.75
2023-05-05T14:51:04.209Z,4.18
2023-05-05T14:53:31.691Z,5.30
2023-05-05T14:55:59.151Z,4.20
2023-05-05T14:58:26.699Z,5.13
2023-05-05T15:00:54.547Z,3.72
2023-05-05T15:03:22.028Z,4.90
2023-05-05T15:05:49.411Z,4.13
2023-05-05T15:08:18.670Z,4.82
2023-05-05T15:10:46.428Z,3.53
2023-05-05T15:13:14.139Z,5.63
2023-05-05T15:15:41.643Z,3.20
2023-05-05T15:18:09.052Z,5.97
2023-05-05T15:20:37.590Z,2.92
2023-05-05T15:23:05.052Z,5.18
2023-05-05T15:25:32.629Z,4.10
2023-05-05T15:28:00.882Z,3.40
2023-05-05T15:30:28.578Z,2.60
2023-05-05T15:32:55.962Z,3.15
2023-05-05T15:35:25.514Z,3.03
2023-05-05T15:37:54.233Z,4.38
2023-05-05T15:40:21.838Z,3.83
2023-05-05T15:42:49.926Z,3.35
2023-05-05T15:45:17.470Z,3.00
2023-05-05T15:47:44.911Z,2.45
2023-05-05T15:50:13.223Z,4.57
2023-05-05T15:52:40.690Z,3.83
2023-05-05T15:55:09.016Z,2.88
2023-05-05T15:57:39.279Z,2.90
2023-05-05T16:00:08.347Z,2.70
2023-05-05T16:02:35.866Z,3.03
2023-05-05T16:05:03.228Z,2.90
2023-05-05T16:07:30.638Z,3.10
2023-05-05T16:09:57.953Z,3.70
2023-05-05T16:12:25.542Z,4.57
2023-05-05T16:14:53.244Z,2.90
2023-05-05T16:17:22.297Z,4.30
2023-05-05T16:19:50.374Z,2.15
2023-05-05T16:22:17.792Z,3.33
2023-05-05T16:24:45.094Z,2.45
2023-05-05T16:27:12.437Z,3.42
2023-05-05T16:29:40.008Z,3.53
2023-05-05T16:32:07.466Z,3.63
2023-05-05T16:34:34.863Z,3.28
2023-05-05T16:37:02.223Z,3.22
2023-05-05T16:39:29.571Z,3.58
2023-05-05T16:41:56.940Z,3.05
2023-05-05T16:44:24.376Z,4.35
2023-05-05T16:46:51.847Z,6.22
2023-05-05T16:49:19.186Z,3.33
2023-05-05T16:51:46.537Z,4.70
2023-05-05T16:54:13.893Z,3.38
2023-05-05T16:56:41.317Z,5.00
2023-05-05T16:59:08.807Z,5.40
2023-05-05T17:01:36.133Z,5.30
2023-05-05T17:04:03.525Z,4.63
2023-05-05T17:06:32.571Z,3.97
2023-05-05T17:09:00.220Z,4.78
2023-05-05T17:11:27.543Z,3.83
2023-05-05T17:13:54.880Z,2.92
2023-05-05T17:16:22.275Z,4.00
2023-05-05T17:18:49.785Z,3.63
2023-05-05T17:21:17.082Z,4.15
2023-05-05T17:23:44.458Z,4.35
2023-05-05T17:26:13.598Z,5.53
2023-05-05T17:28:40.992Z,4.07
2023-05-05T17:31:08.492Z,4.70
2023-05-05T17:33:35.896Z,5.00
2023-05-05T17:36:03.247Z,5.57
2023-05-05T17:38:30.670Z,4.80
2023-05-05T17:40:58.044Z,4.45
2023-05-05T17:43:25.593Z,4.93
2023-05-05T17:45:53.166Z,4.63
2023-05-05T17:48:20.578Z,6.90
2023-05-05T17:50:47.932Z,5.43
2023-05-05T17:53:16.092Z,4.38
2023-05-05T17:55:47.301Z,5.85
2023-05-05T17:58:14.656Z,5.03
2023-05-05T18:00:42.025Z,5.90
2023-05-05T18:03:09.545Z,6.60
2023-05-05T18:05:37.030Z,4.68
2023-05-05T18:08:04.429Z,7.05
2023-05-05T18:10:31.872Z,6.80
2023-05-05T18:12:59.286Z,6.18
2023-05-05T18:15:27.115Z,5.55
2023-05-05T18:17:54.473Z,5.63
2023-05-05T18:20:21.851Z,5.28
2023-05-05T18:22:49.229Z,4.60
2023-05-05T18:25:16.557Z,7.32
2023-05-05T18:27:44.463Z,5.15
2023-05-05T18:30:12.280Z,5.93
2023-05-05T18:32:39.617Z,5.55
2023-05-05T18:35:07.695Z,5.55
2023-05-05T18:37:35.351Z,5.68
2023-05-05T18:40:03.273Z,5.03
2023-05-05T18:42:30.704Z,6.10
2023-05-05T18:44:58.082Z,6.95
2023-05-05T18:47:26.266Z,5.88
2023-05-05T18:49:53.573Z,10.52
2023-05-05T18:52:20.913Z,6.53
2023-05-05T18:54:48.260Z,9.40
2023-05-05T18:57:15.694Z,4.97
2023-05-05T18:59:42.987Z,6.38
2023-05-05T19:02:10.336Z,5.78
2023-05-05T19:04:38.123Z,6.75
2023-05-05T19:07:06.053Z,6.57
2023-05-05T19:09:33.698Z,6.70
2023-05-05T19:12:03.186Z,5.75
2023-05-05T19:14:30.513Z,5.53
2023-05-05T19:16:59.103Z,6.38
2023-05-05T19:19:26.703Z,6.25
2023-05-05T19:21:54.738Z,5.68
2023-05-05T19:24:22.136Z,5.82
2023-05-05T19:26:49.540Z,5.55
2023-05-05T19:29:17.080Z,5.78
2023-05-05T19:31:44.466Z,7.90
2023-05-05T19:34:11.809Z,5.68
2023-05-05T19:36:39.098Z,8.30
2023-05-05T19:39:06.465Z,5.72
2023-05-05T19:41:35.495Z,8.60
2023-05-05T19:44:03.326Z,9.63
2023-05-05T19:46:30.784Z,9.05
2023-05-05T19:48:58.190Z,8.85
2023-05-05T19:51:25.579Z,10.20
2023-05-05T19:53:52.943Z,8.70
2023-05-05T19:56:21.640Z,9.52
2023-05-05T19:58:54.465Z,7.82
2023-05-05T20:01:21.915Z,7.00
2023-05-05T20:03:49.544Z,8.50
2023-05-05T20:06:17.165Z,8.02
2023-05-05T20:08:44.513Z,10.10
2023-05-05T20:11:12.347Z,7.28
2023-05-05T20:13:40.082Z,7.50
2023-05-05T20:16:07.922Z,7.65
2023-05-05T20:18:35.430Z,8.55
2023-05-05T20:21:02.922Z,8.32
2023-05-05T20:23:30.806Z,6.20
2023-05-05T20:25:58.249Z,6.80
2023-05-05T20:28:25.653Z,7.57
2023-05-05T20:30:52.974Z,6.55
2023-05-05T20:33:20.297Z,7.22
2023-05-05T20:35:47.616Z,8.88
2023-05-05T20:38:14.975Z,7.30
2023-05-05T20:40:42.338Z,8.52
2023-05-05T20:43:09.648Z,7.28
2023-05-05T20:45:37.258Z,6.72
2023-05-05T20:48:07.378Z,6.93
2023-05-05T20:50:40.770Z,7.45
2023-05-05T20:53:08.895Z,8.77
2023-05-05T20:55:36.193Z,7.97
2023-05-05T20:58:04.944Z,6.55
2023-05-05T21:00:34.167Z,8.10
2023-05-05T21:03:02.712Z,7.80
2023-05-05T21:05:31.548Z,6.75
2023-05-05T21:08:00.827Z,8.82
2023-05-05T21:10:29.216Z,7.60
2023-05-05T21:12:56.668Z,9.00
2023-05-05T21:15:24.085Z,8.23
2023-05-05T21:17:51.726Z,8.40
2023-05-05T21:20:19.281Z,8.80
2023-05-05T21:22:46.618Z,9.05
2023-05-05T21:25:16.331Z,8.07
2023-05-05T21:27:44.297Z,9.73
2023-05-05T21:30:12.218Z,10.80
2023-05-05T21:32:40.469Z,10.40
2023-05-05T21:35:09.473Z,9.40
2023-05-05T21:37:38.893Z,8.43
2023-05-05T21:40:10.865Z,8.68
2023-05-05T21:42:39.094Z,11.00
2023-05-05T21:45:06.932Z,9.57
2023-05-05T21:47:34.610Z,9.38
2023-05-05T21:50:02.238Z,12.40
2023-05-05T21:52:29.605Z,10.60
2023-05-05T21:54:56.939Z,8.48
2023-05-05T21:57:24.507Z,11.25
2023-05-05T21:59:51.884Z,9.63
2023-05-05T22:02:19.283Z,8.30
2023-05-05T22:04:48.773Z,11.95
2023-05-05T22:07:16.152Z,10.30
2023-05-05T22:09:43.488Z,10.07
2023-05-05T22:12:10.843Z,8.68
2023-05-05T22:14:38.150Z,9.55
2023-05-05T22:17:05.570Z,8.07
2023-05-05T22:19:32.865Z,10.85
2023-05-05T22:22:00.188Z,9.52
2023-05-05T22:24:27.457Z,10.00
2023-05-05T22:26:55.018Z,10.02
2023-05-05T22:29:22.332Z,12.85
2023-05-05T22:31:49.719Z,9.57
2023-05-05T22:34:18.767Z,10.40
2023-05-05T22:36:46.131Z,10.07
2023-05-05T22:39:13.460Z,9.27
2023-05-05T22:41:41.085Z,11.68
2023-05-05T22:44:08.477Z,10.32
2023-05-05T22:46:35.815Z,9.10
2023-05-05T22:49:03.409Z,11.80
2023-05-05T22:51:31.751Z,11.38
2023-05-05T22:53:59.068Z,12.60
2023-05-05T22:56:26.389Z,12.35
2023-05-05T22:58:53.672Z,10.02
2023-05-05T23:01:21.065Z,11.10
2023-05-05T23:03:48.636Z,14.35
2023-05-05T23:06:16.019Z,12.45
2023-05-05T23:08:43.315Z,10.30
2023-05-05T23:11:10.658Z,12.93
2023-05-05T23:13:38.019Z,16.77
2023-05-05T23:16:05.918Z,12.30
2023-05-05T23:18:33.505Z,10.07
2023-05-05T23:21:01.377Z,11.88
2023-05-05T23:23:28.738Z,12.43
2023-05-05T23:25:56.072Z,12.77
2023-05-05T23:28:23.423Z,12.02
2023-05-05T23:30:50.796Z,13.30
2023-05-05T23:33:18.250Z,12.40
2023-05-05T23:35:45.661Z,15.43
2023-05-05T23:38:12.969Z,16.27
2023-05-05T23:40:40.351Z,13.20
2023-05-05T23:43:07.651Z,13.25
2023-05-05T23:45:34.995Z,15.88
2023-05-05T23:48:02.318Z,13.48
2023-05-05T23:50:30.366Z,12.73
2023-05-05T23:52:57.709Z,12.70
2023-05-05T23:55:25.159Z,13.90
2023-05-05T23:57:53.240Z,14.13
